KHQM

Bowerman Airport

Hoquiam, Washington, USA
METAR KHQM 211353Z AUTO 00000KT 9SM OVC025 12/08 A3008 RMK AO2 SLP189 T01170083
Observed Flight Rules
May-21 @ 13:53 UTC (58 minutes ago) Marginal Visual Flight Rules
Visibility Clouds
9 miles
  • Overcast at 2,500' AGL
Temperatures Readings
Current 12°C / 54°F
Dewpoint 8°C / 46°F
Humidity 77%
Altimeter 30.08" Hg
Pressure 1018.9 hPa
Elevation 7
METAR KHQM 211353Z AUTO 00000KT 9SM OVC025 12/08 A3008 RMK AO2 SLP189 T01170083
Observed Flight Rules
May-21 @ 13:53 UTC
(58 minutes ago)
MVFR
Clouds
  • Overcast at 2,500' AGL
Temperature Dewpoint
12°C / 54°F 8°C / 46°F
Humidity Altimeter Pressure
77% 30.08" Hg 1018.9 hPa